Time;durP1;ratioP1;P1;durP2;ratioP2;P2;SDS_P1;SDS_P2;PMS_P1;PMS_P2;Temp;Humidity;BMP_temperature;BMP_pressure;BME280_temperature;BME280_humidity;BME280_pressure;Samples;Min_cycle;Max_cycle;Signal;HPM_P1;HPM_P2
2023/05/22 00:00:09;;;;;;;10.40;9.23;;;21.90;71.00;;;;;;4944749;28;20487;-68
2023/05/22 00:02:41;;;;;;;10.20;9.20;;;21.90;71.00;;;;;;4956730;28;20432;-68
2023/05/22 00:05:13;;;;;;;10.13;8.83;;;21.90;71.00;;;;;;4947699;28;20985;-68
2023/05/22 00:07:41;;;;;;;10.50;9.57;;;21.90;71.00;;;;;;4955867;28;20809;-67
2023/05/22 00:10:11;;;;;;;10.17;9.27;;;21.90;70.90;;;;;;4946843;28;20905;-69
2023/05/22 00:12:39;;;;;;;10.47;9.40;;;21.90;71.00;;;;;;4946002;28;20463;-69
2023/05/22 00:15:10;;;;;;;10.17;9.10;;;21.90;70.90;;;;;;4967853;28;20483;-69
2023/05/22 00:17:38;;;;;;;9.77;8.90;;;21.90;70.90;;;;;;4949142;28;20496;-67
2023/05/22 00:20:09;;;;;;;11.07;10.00;;;21.90;70.90;;;;;;4953115;28;21003;-69
2023/05/22 00:22:39;;;;;;;10.03;9.13;;;21.90;71.00;;;;;;4956880;28;20464;-68
2023/05/22 00:25:10;;;;;;;10.87;9.87;;;21.90;70.80;;;;;;4950684;28;20474;-68
2023/05/22 00:27:38;;;;;;;10.97;9.97;;;21.90;71.00;;;;;;4946426;28;20453;-67
2023/05/22 00:30:08;;;;;;;9.40;8.60;;;21.90;70.80;;;;;;4947030;28;20463;-67
2023/05/22 00:32:36;;;;;;;9.80;8.97;;;21.90;70.90;;;;;;4946397;29;20480;-68
2023/05/22 00:35:06;;;;;;;10.30;9.40;;;21.90;70.80;;;;;;4945310;28;21317;-68
2023/05/22 00:37:34;;;;;;;9.27;8.50;;;21.90;70.90;;;;;;4946894;28;20443;-65
2023/05/22 00:40:05;;;;;;;10.30;9.23;;;21.90;70.90;;;;;;4946921;28;20480;-66
2023/05/22 00:42:34;;;;;;;10.90;9.90;;;21.90;70.90;;;;;;4945905;28;20449;-68
2023/05/22 00:45:02;;;;;;;9.20;8.27;;;21.90;70.80;;;;;;4944153;28;20485;-68
2023/05/22 00:47:31;;;;;;;8.33;7.33;;;21.90;70.90;;;;;;4941504;28;20518;-68
2023/05/22 00:50:00;;;;;;;9.43;8.53;;;21.90;70.90;;;;;;4950640;28;20491;-68
2023/05/22 00:52:30;;;;;;;9.13;8.33;;;21.90;70.90;;;;;;4946575;28;20449;-66
2023/05/22 00:54:59;;;;;;;10.73;9.83;;;21.90;71.00;;;;;;4950555;28;20589;-67
2023/05/22 00:57:32;;;;;;;10.60;9.60;;;21.90;70.90;;;;;;4950414;28;20530;-73
2023/05/22 01:00:02;;;;;;;10.17;9.17;;;21.90;70.90;;;;;;4947118;28;20534;-72
2023/05/22 01:02:32;;;;;;;9.90;9.00;;;21.90;70.80;;;;;;4949805;28;20579;-74
2023/05/22 01:05:02;;;;;;;10.97;10.07;;;21.90;70.90;;;;;;4941065;28;20935;-72
2023/05/22 01:07:31;;;;;;;10.07;8.07;;;21.90;70.90;;;;;;4966760;28;20524;-72
2023/05/22 01:10:00;;;;;;;10.30;9.40;;;21.90;71.00;;;;;;4954583;28;20471;-72
2023/05/22 01:12:40;;;;;;;9.67;8.87;;;21.90;70.90;;;;;;4947775;28;20452;-72
2023/05/22 01:15:16;;;;;;;10.33;9.40;;;21.90;70.80;;;;;;4963668;28;20495;-72
2023/05/22 01:17:51;;;;;;;10.67;9.73;;;21.90;70.80;;;;;;4947147;28;20452;-73
2023/05/22 01:20:26;;;;;;;10.30;9.30;;;21.90;70.90;;;;;;4941895;28;21015;-72
2023/05/22 01:23:31;;;;;;;8.90;8.10;;;21.90;71.00;;;;;;4945587;28;20872;-71
2023/05/22 01:26:31;;;;;;;10.80;9.90;;;21.90;70.90;;;;;;4949765;28;20919;-72
2023/05/22 01:29:34;;;;;;;10.37;9.37;;;21.90;70.80;;;;;;4945974;29;20479;-73
2023/05/22 01:32:06;;;;;;;10.00;9.10;;;21.90;71.00;;;;;;4944539;28;20432;-73
2023/05/22 01:34:35;;;;;;;10.37;9.47;;;21.90;70.90;;;;;;4945907;28;20809;-72
2023/05/22 01:37:05;;;;;;;11.13;10.00;;;21.90;70.90;;;;;;4950718;28;20448;-72
2023/05/22 01:39:35;;;;;;;9.10;8.30;;;21.90;70.90;;;;;;4952387;28;20469;-72
2023/05/22 01:42:04;;;;;;;9.40;8.50;;;21.90;70.90;;;;;;4950546;28;20478;-72
2023/05/22 01:44:34;;;;;;;9.43;8.53;;;21.90;71.00;;;;;;4950863;28;20476;-71
2023/05/22 01:47:04;;;;;;;10.83;9.93;;;21.80;70.80;;;;;;4958792;28;20827;-72
2023/05/22 01:49:34;;;;;;;10.13;9.33;;;21.90;70.90;;;;;;4954918;28;20507;-72
2023/05/22 01:52:11;;;;;;;10.83;9.83;;;21.80;70.90;;;;;;4959832;28;20444;-72
2023/05/22 01:54:46;;;;;;;10.33;9.33;;;21.80;70.90;;;;;;4949323;28;20459;-72
2023/05/22 01:57:20;;;;;;;10.23;9.33;;;21.80;70.90;;;;;;4954850;28;20817;-72
2023/05/22 01:59:54;;;;;;;10.27;9.37;;;21.80;70.90;;;;;;4951366;28;20511;-72
2023/05/22 02:02:25;;;;;;;9.30;8.50;;;21.90;70.90;;;;;;4954105;28;20468;-72
2023/05/22 02:04:59;;;;;;;9.27;8.47;;;21.80;71.00;;;;;;4943448;28;20583;-72
2023/05/22 02:07:29;;;;;;;11.17;10.27;;;21.80;70.80;;;;;;4952010;28;20449;-72
2023/05/22 02:09:59;;;;;;;11.10;10.10;;;21.80;70.90;;;;;;4947860;28;20482;-72
2023/05/22 02:12:28;;;;;;;9.40;8.70;;;21.80;70.80;;;;;;4944359;28;20424;-72
2023/05/22 02:14:57;;;;;;;10.93;9.93;;;21.80;70.90;;;;;;4948282;28;20491;-72
2023/05/22 02:17:29;;;;;;;9.37;8.57;;;21.80;70.90;;;;;;4952236;28;20447;-71
2023/05/22 02:19:57;;;;;;;9.37;8.47;;;21.80;70.90;;;;;;4950695;28;20506;-73
2023/05/22 02:22:29;;;;;;;11.43;10.43;;;21.80;70.80;;;;;;4959244;28;20475;-71
2023/05/22 02:24:57;;;;;;;9.33;8.50;;;21.80;70.80;;;;;;4959928;28;20468;-72
2023/05/22 02:27:26;;;;;;;8.83;8.03;;;21.80;70.80;;;;;;4951517;28;20508;-71
2023/05/22 02:29:55;;;;;;;10.63;9.63;;;21.80;70.90;;;;;;4949590;28;20460;-73
2023/05/22 02:32:23;;;;;;;9.30;8.50;;;21.80;70.90;;;;;;4951989;28;20869;-73
2023/05/22 02:34:53;;;;;;;8.33;7.53;;;21.80;70.90;;;;;;4950679;28;20481;-71
2023/05/22 02:37:23;;;;;;;8.60;7.80;;;21.80;70.90;;;;;;4963239;28;20436;-72
2023/05/22 02:39:52;;;;;;;7.37;6.70;;;21.80;70.90;;;;;;4950447;28;20475;-72
2023/05/22 02:42:20;;;;;;;9.27;8.47;;;21.80;71.00;;;;;;4952248;28;20497;-72
2023/05/22 02:44:49;;;;;;;9.07;8.17;;;21.80;71.00;;;;;;4944082;28;20471;-72
2023/05/22 02:47:17;;;;;;;9.37;8.50;;;21.80;70.90;;;;;;4952524;28;20946;-72
2023/05/22 02:49:46;;;;;;;9.43;8.57;;;21.80;70.90;;;;;;4944190;28;20559;-72
2023/05/22 02:52:16;;;;;;;8.97;8.17;;;21.80;70.90;;;;;;4952926;28;20785;-73
2023/05/22 02:54:45;;;;;;;9.33;8.50;;;21.80;70.90;;;;;;4943938;28;20569;-72
2023/05/22 02:57:13;;;;;;;10.00;9.00;;;21.80;71.00;;;;;;4956948;28;20985;-72
2023/05/22 02:59:42;;;;;;;9.33;8.50;;;21.80;71.00;;;;;;4949085;28;20481;-72
2023/05/22 03:02:11;;;;;;;9.80;8.90;;;21.70;70.90;;;;;;4948628;28;20472;-71
2023/05/22 03:04:39;;;;;;;9.50;8.60;;;21.80;71.10;;;;;;4946604;28;20488;-72
2023/05/22 03:07:11;;;;;;;12.37;11.17;;;21.80;70.90;;;;;;4951343;28;20463;-71
2023/05/22 03:09:41;;;;;;;10.90;9.80;;;21.80;70.80;;;;;;4953309;28;20456;-72
2023/05/22 03:12:10;;;;;;;9.57;8.67;;;21.80;71.00;;;;;;4948858;28;20951;-73
2023/05/22 03:14:38;;;;;;;9.80;8.93;;;21.80;70.90;;;;;;4941240;28;20483;-72
2023/05/22 03:17:07;;;;;;;10.97;9.97;;;21.80;70.90;;;;;;4948801;28;20485;-72
2023/05/22 03:19:36;;;;;;;9.53;8.63;;;21.80;70.90;;;;;;4946877;28;20444;-72
2023/05/22 03:22:05;;;;;;;11.13;10.13;;;21.80;70.90;;;;;;4932016;28;20467;-72
2023/05/22 03:24:34;;;;;;;9.57;8.67;;;21.70;70.80;;;;;;4947874;28;20977;-72
2023/05/22 03:27:06;;;;;;;9.67;8.77;;;21.70;70.90;;;;;;4952461;28;20462;-72
2023/05/22 03:29:41;;;;;;;12.17;11.13;;;21.70;70.90;;;;;;4948506;28;20515;-72
2023/05/22 03:32:10;;;;;;;10.17;9.17;;;21.70;70.80;;;;;;4947132;28;20817;-71
2023/05/22 03:34:38;;;;;;;9.77;8.87;;;21.70;70.90;;;;;;4955329;28;20568;-72
2023/05/22 03:37:09;;;;;;;10.63;9.63;;;21.70;70.90;;;;;;4946969;28;20440;-72
2023/05/22 03:39:38;;;;;;;13.30;12.10;;;21.70;70.70;;;;;;4953492;28;20437;-72
2023/05/22 03:42:23;;;;;;;10.70;9.70;;;21.70;70.70;;;;;;4924821;29;20476;-72
2023/05/22 03:44:51;;;;;;;10.27;9.40;;;21.70;70.90;;;;;;4941752;28;20486;-72
2023/05/22 03:47:20;;;;;;;9.57;8.67;;;21.70;70.90;;;;;;4954818;28;20434;-71
2023/05/22 03:49:52;;;;;;;10.43;9.50;;;21.70;70.90;;;;;;4948441;28;20906;-73
2023/05/22 03:52:22;;;;;;;10.33;9.40;;;21.70;70.90;;;;;;4951239;28;20447;-71
2023/05/22 03:54:52;;;;;;;11.37;10.37;;;21.70;70.80;;;;;;4951557;28;20483;-72
2023/05/22 03:57:20;;;;;;;11.93;10.90;;;21.70;70.90;;;;;;4945468;28;20485;-72
2023/05/22 03:59:50;;;;;;;10.50;9.50;;;21.70;70.90;;;;;;4946268;28;20496;-73
2023/05/22 04:02:19;;;;;;;10.07;9.07;;;21.70;71.00;;;;;;4962794;28;20567;-72
2023/05/22 04:04:48;;;;;;;11.03;9.90;;;21.70;71.00;;;;;;4946951;28;20523;-72
2023/05/22 04:07:19;;;;;;;9.10;8.30;;;21.70;71.00;;;;;;4955763;28;21429;-72
2023/05/22 04:09:47;;;;;;;9.80;8.57;;;21.70;71.10;;;;;;4948275;28;20510;-72
2023/05/22 04:12:16;;;;;;;9.50;8.70;;;21.70;71.10;;;;;;4950097;28;20448;-72
2023/05/22 04:14:44;;;;;;;9.70;8.70;;;21.60;71.00;;;;;;4941681;28;20568;-72
2023/05/22 04:17:15;;;;;;;13.17;10.87;;;21.70;71.00;;;;;;4954868;28;20451;-72
2023/05/22 04:19:44;;;;;;;10.53;9.50;;;21.60;70.90;;;;;;4945321;28;20976;-72
2023/05/22 04:22:12;;;;;;;10.30;9.30;;;21.60;71.00;;;;;;4948676;28;20547;-71
2023/05/22 04:24:40;;;;;;;10.37;9.47;;;21.60;71.00;;;;;;4948030;28;20475;-73
2023/05/22 04:27:09;;;;;;;10.43;9.53;;;21.60;70.90;;;;;;4948722;28;20524;-73
2023/05/22 04:29:40;;;;;;;10.43;9.37;;;21.60;71.00;;;;;;4944484;28;20477;-72
2023/05/22 04:32:09;;;;;;;10.00;9.13;;;21.60;71.10;;;;;;4953153;28;20434;-73
2023/05/22 04:34:40;;;;;;;9.67;8.73;;;21.60;71.00;;;;;;4943051;28;20558;-72
2023/05/22 04:37:09;;;;;;;10.67;9.67;;;21.60;71.00;;;;;;4954466;28;20524;-73
2023/05/22 04:39:39;;;;;;;11.37;10.17;;;21.60;71.20;;;;;;4945502;28;20482;-73
2023/05/22 04:42:08;;;;;;;11.57;9.53;;;21.60;71.00;;;;;;4931155;28;20484;-71
2023/05/22 04:44:37;;;;;;;11.97;10.17;;;21.60;71.10;;;;;;4954987;28;20543;-72
2023/05/22 04:47:06;;;;;;;11.20;10.13;;;21.60;71.10;;;;;;4947373;29;20628;-72
2023/05/22 04:49:35;;;;;;;11.87;10.67;;;21.60;71.20;;;;;;4944672;28;21012;-71
2023/05/22 04:52:06;;;;;;;11.37;9.27;;;21.60;71.20;;;;;;4952825;28;20447;-71
2023/05/22 04:54:34;;;;;;;11.37;10.17;;;21.60;71.20;;;;;;4949761;28;20522;-71
2023/05/22 04:57:03;;;;;;;12.90;11.53;;;21.60;71.20;;;;;;4946418;28;20480;-72
2023/05/22 04:59:36;;;;;;;11.83;10.73;;;21.60;71.30;;;;;;4944695;28;20508;-72
2023/05/22 05:02:05;;;;;;;11.40;10.30;;;21.60;72.60;;;;;;4953343;28;20940;-71
2023/05/22 05:04:34;;;;;;;12.00;10.53;;;21.60;71.30;;;;;;4944367;28;20857;-72
2023/05/22 05:07:08;;;;;;;11.57;10.40;;;21.60;71.30;;;;;;4970896;28;20543;-72
2023/05/22 05:09:37;;;;;;;13.53;11.60;;;21.50;71.20;;;;;;4947059;28;20467;-71
2023/05/22 05:12:07;;;;;;;13.13;11.90;;;21.60;71.40;;;;;;4946110;28;20456;-72
2023/05/22 05:14:36;;;;;;;13.17;11.60;;;21.50;71.30;;;;;;4949077;28;20559;-72
2023/05/22 05:17:05;;;;;;;11.20;9.60;;;21.60;71.50;;;;;;4951611;28;20455;-72
2023/05/22 05:19:34;;;;;;;12.13;10.93;;;21.50;71.40;;;;;;4943771;28;20486;-73
2023/05/22 05:22:05;;;;;;;12.20;11.00;;;21.60;71.50;;;;;;4952228;28;20445;-71
2023/05/22 05:24:35;;;;;;;14.30;12.73;;;21.50;71.40;;;;;;4942813;28;20857;-71
2023/05/22 05:27:04;;;;;;;13.93;11.37;;;21.50;71.50;;;;;;4947010;28;20467;-72
2023/05/22 05:29:32;;;;;;;12.07;10.87;;;21.50;71.50;;;;;;4943463;28;20479;-72
2023/05/22 05:32:07;;;;;;;12.67;11.37;;;21.50;71.50;;;;;;4947421;28;20736;-72
2023/05/22 05:34:48;;;;;;;15.20;13.70;;;21.50;71.50;;;;;;4949067;28;20994;-72
2023/05/22 05:37:35;;;;;;;13.50;12.00;;;21.50;71.50;;;;;;4947611;28;20440;-73
2023/05/22 05:40:09;;;;;;;14.23;12.83;;;21.50;71.60;;;;;;4965746;28;20483;-71
2023/05/22 05:42:42;;;;;;;17.53;12.67;;;21.50;71.50;;;;;;4946235;28;20440;-72
2023/05/22 05:45:13;;;;;;;14.90;11.57;;;21.50;71.50;;;;;;4945498;28;20480;-72
2023/05/22 05:47:45;;;;;;;12.53;11.33;;;21.50;71.60;;;;;;4955072;28;20760;-72
2023/05/22 05:50:15;;;;;;;13.07;11.70;;;21.50;71.60;;;;;;4942609;28;20503;-72
2023/05/22 05:52:43;;;;;;;14.13;12.70;;;21.50;71.70;;;;;;4961341;28;20855;-72
2023/05/22 05:55:17;;;;;;;16.90;13.70;;;20.00;70.00;;;;;;4945542;28;20572;-71
2023/05/22 05:57:47;;;;;;;13.20;11.53;;;21.50;71.50;;;;;;4947289;28;20491;-73
2023/05/22 06:00:23;;;;;;;14.03;11.97;;;21.50;71.50;;;;;;4947807;28;20569;-72
2023/05/22 06:02:52;;;;;;;14.83;12.43;;;21.50;71.50;;;;;;4949059;28;20455;-73
2023/05/22 06:05:45;;;;;;;14.93;13.43;;;21.50;71.60;;;;;;4941126;28;20484;-72
2023/05/22 06:08:22;;;;;;;15.33;13.73;;;21.50;71.50;;;;;;4955145;28;20431;-72
2023/05/22 06:10:52;;;;;;;13.37;11.53;;;21.50;71.60;;;;;;4955124;28;20476;-72
2023/05/22 06:13:41;;;;;;;14.40;12.60;;;21.50;71.60;;;;;;4948986;28;20480;-72
2023/05/22 06:16:09;;;;;;;13.57;12.27;;;21.50;71.50;;;;;;4945921;28;20459;-72
2023/05/22 06:18:38;;;;;;;15.10;12.63;;;21.50;71.60;;;;;;4948553;28;20485;-71
2023/05/22 06:21:07;;;;;;;14.07;12.67;;;21.50;71.70;;;;;;4956971;28;20452;-72
2023/05/22 06:23:35;;;;;;;12.33;11.00;;;21.50;71.70;;;;;;4949275;28;20490;-72
2023/05/22 06:26:07;;;;;;;16.67;13.57;;;21.50;71.70;;;;;;4955569;28;20446;-72
2023/05/22 06:28:39;;;;;;;17.30;14.90;;;21.50;71.80;;;;;;4950295;28;20455;-71
2023/05/22 06:31:08;;;;;;;15.10;13.27;;;21.50;71.80;;;;;;4949783;28;20800;-72
2023/05/22 06:33:42;;;;;;;17.80;14.63;;;21.50;71.90;;;;;;4948692;28;20470;-72
2023/05/22 06:36:11;;;;;;;15.77;14.00;;;21.50;71.90;;;;;;4947931;28;20522;-72
2023/05/22 06:38:40;;;;;;;14.43;12.90;;;21.50;71.90;;;;;;4949401;28;20448;-72
2023/05/22 06:41:21;;;;;;;15.73;13.90;;;21.50;72.00;;;;;;4952515;28;20450;-72
2023/05/22 06:43:50;;;;;;;16.67;14.63;;;21.40;71.70;;;;;;4945722;28;20467;-71
2023/05/22 06:46:24;;;;;;;16.30;14.47;;;21.50;71.80;;;;;;4949758;28;20494;-72
2023/05/22 06:48:57;;;;;;;17.40;14.87;;;21.40;71.80;;;;;;4941356;28;20900;-72
2023/05/22 06:51:33;;;;;;;14.40;12.30;;;21.50;71.90;;;;;;4955311;28;20444;-72
2023/05/22 06:54:07;;;;;;;16.90;14.67;;;21.40;71.80;;;;;;4961254;28;20467;-72
2023/05/22 06:56:38;;;;;;;13.90;11.93;;;21.50;71.80;;;;;;4949968;28;20499;-72
2023/05/22 06:59:10;;;;;;;16.23;13.40;;;21.50;71.90;;;;;;4953508;28;20484;-72
2023/05/22 07:02:02;;;;;;;16.57;13.10;;;21.40;71.80;;;;;;4928039;28;21001;-72
2023/05/22 07:04:59;;;;;;;17.17;13.40;;;21.40;71.80;;;;;;4945460;28;20499;-72
2023/05/22 07:07:37;;;;;;;19.30;15.13;;;21.40;72.00;;;;;;4965715;28;20525;-71
2023/05/22 07:10:06;;;;;;;16.30;14.60;;;21.40;72.00;;;;;;4942280;28;20921;-71
2023/05/22 07:12:37;;;;;;;15.13;13.63;;;21.40;71.90;;;;;;4941850;28;20448;-72
2023/05/22 07:15:10;;;;;;;15.90;13.83;;;21.40;72.00;;;;;;4963478;28;20472;-72
2023/05/22 07:17:40;;;;;;;14.40;12.83;;;21.40;71.90;;;;;;4957263;28;20519;-72
2023/05/22 07:20:10;;;;;;;17.33;13.13;;;21.40;72.00;;;;;;4941214;28;20849;-71
2023/05/22 07:22:46;;;;;;;15.73;13.90;;;21.40;72.00;;;;;;4940373;28;20456;-71
2023/05/22 07:25:14;;;;;;;15.27;12.90;;;21.40;72.00;;;;;;4961813;28;20537;-73
2023/05/22 07:27:44;;;;;;;18.73;13.63;;;21.40;71.90;;;;;;4949374;28;20495;-71
2023/05/22 07:30:13;;;;;;;14.67;13.17;;;21.40;72.10;;;;;;4942974;28;20551;-72
2023/05/22 07:32:42;;;;;;;12.97;11.57;;;21.40;72.10;;;;;;4946590;28;20447;-72
2023/05/22 07:35:11;;;;;;;14.90;12.27;;;21.40;72.00;;;;;;4943934;28;20472;-72
2023/05/22 07:37:40;;;;;;;13.80;12.37;;;21.40;72.10;;;;;;4954439;28;21025;-66
2023/05/22 07:40:10;;;;;;;15.70;13.47;;;21.40;72.00;;;;;;4952040;28;20864;-67
2023/05/22 07:42:38;;;;;;;13.60;11.97;;;21.40;72.10;;;;;;4945806;28;20532;-68
2023/05/22 07:45:11;;;;;;;14.60;13.10;;;21.40;72.00;;;;;;4947425;28;20483;-67
2023/05/22 07:47:39;;;;;;;13.63;12.23;;;21.40;72.10;;;;;;4940935;28;20441;-68
2023/05/22 07:50:09;;;;;;;15.00;13.60;;;21.40;72.00;;;;;;4945175;28;20537;-67
2023/05/22 07:52:41;;;;;;;13.80;12.10;;;21.40;72.10;;;;;;4949243;28;20440;-66
2023/05/22 07:55:10;;;;;;;14.50;12.77;;;21.40;72.10;;;;;;4956196;28;20559;-68
2023/05/22 07:57:42;;;;;;;13.00;11.10;;;21.40;72.10;;;;;;4946380;28;20863;-66
2023/05/22 08:00:26;;;;;;;15.60;13.53;;;21.40;72.10;;;;;;4952357;28;20472;-67
2023/05/22 08:02:55;;;;;;;16.10;14.40;;;21.40;72.20;;;;;;4944217;28;20701;-67
2023/05/22 08:05:24;;;;;;;13.90;12.43;;;21.40;72.20;;;;;;4950863;28;20484;-65
2023/05/22 08:07:52;;;;;;;15.23;13.63;;;21.50;72.20;;;;;;4946992;28;20456;-68
2023/05/22 08:10:21;;;;;;;14.60;13.13;;;21.50;72.30;;;;;;4947416;28;20479;-67
2023/05/22 08:12:49;;;;;;;16.63;14.07;;;21.40;72.20;;;;;;4946256;28;20466;-67
2023/05/22 08:15:18;;;;;;;15.30;13.90;;;21.50;72.30;;;;;;4953234;28;20490;-67
2023/05/22 08:17:48;;;;;;;15.17;13.57;;;21.40;72.20;;;;;;4956267;28;20447;-65
2023/05/22 08:20:16;;;;;;;14.07;12.57;;;21.50;72.30;;;;;;4930025;29;20574;-68
2023/05/22 08:22:45;;;;;;;14.90;13.40;;;21.50;72.20;;;;;;4946942;28;20471;-66
2023/05/22 08:25:13;;;;;;;13.43;12.03;;;21.50;72.20;;;;;;4946626;28;20512;-67
2023/05/22 08:27:42;;;;;;;14.57;12.90;;;21.50;72.10;;;;;;4947959;28;20443;-67
2023/05/22 08:30:11;;;;;;;12.73;11.33;;;21.50;72.10;;;;;;4944500;28;20512;-67
2023/05/22 08:32:39;;;;;;;14.37;12.47;;;21.50;72.10;;;;;;4960988;28;20538;-67
2023/05/22 08:35:10;;;;;;;13.93;12.47;;;21.50;72.10;;;;;;4948112;28;20514;-67
2023/05/22 08:37:38;;;;;;;14.77;12.30;;;21.50;72.10;;;;;;4951509;28;20938;-68
2023/05/22 08:40:11;;;;;;;13.80;12.43;;;21.50;72.00;;;;;;4946579;28;20511;-68
2023/05/22 08:42:39;;;;;;;17.97;16.07;;;21.50;72.40;;;;;;4948283;28;21102;-70
2023/05/22 08:45:08;;;;;;;18.50;15.80;;;21.60;72.30;;;;;;4943852;28;20483;-68
2023/05/22 08:47:39;;;;;;;19.10;17.20;;;21.60;72.20;;;;;;4955873;28;20444;-68
2023/05/22 08:50:10;;;;;;;27.37;17.43;;;21.70;72.40;;;;;;4941376;28;21059;-69
2023/05/22 08:52:47;;;;;;;24.40;19.30;;;21.70;72.20;;;;;;4948710;28;20455;-68
2023/05/22 08:55:18;;;;;;;77.90;30.40;;;21.70;72.60;;;;;;4947195;28;20479;-69
2023/05/22 08:57:47;;;;;;;42.30;24.10;;;21.70;72.60;;;;;;4946370;28;20499;-69
2023/05/22 09:00:17;;;;;;;22.67;20.07;;;21.60;72.90;;;;;;4957172;28;20468;-70
2023/05/22 09:02:47;;;;;;;35.37;19.37;;;21.70;72.70;;;;;;4945770;28;20452;-69
2023/05/22 09:05:17;;;;;;;24.10;20.13;;;21.60;72.80;;;;;;4946056;28;21018;-68
2023/05/22 09:07:47;;;;;;;22.63;19.70;;;21.60;73.00;;;;;;4944136;28;20887;-70
2023/05/22 09:10:16;;;;;;;21.87;19.10;;;21.60;72.90;;;;;;4942742;28;20475;-69
2023/05/22 09:13:03;;;;;;;28.50;22.10;;;21.60;72.60;;;;;;4943542;28;20463;-69
2023/05/22 09:15:32;;;;;;;25.23;21.00;;;21.60;72.70;;;;;;4940740;28;20578;-69
2023/05/22 09:18:02;;;;;;;28.50;23.40;;;21.60;72.70;;;;;;4951300;28;20889;-69
2023/05/22 09:20:34;;;;;;;26.53;21.07;;;21.50;72.70;;;;;;4945561;28;20961;-69
2023/05/22 09:23:11;;;;;;;24.53;19.80;;;21.50;73.20;;;;;;4942342;28;20463;-70
2023/05/22 09:25:41;;;;;;;25.33;20.83;;;21.60;73.10;;;;;;4945776;28;20483;-68
2023/05/22 09:28:11;;;;;;;24.40;21.37;;;21.60;73.20;;;;;;4945920;28;20459;-69
2023/05/22 09:30:40;;;;;;;25.47;22.00;;;21.60;73.50;;;;;;4948613;28;20483;-69
2023/05/22 09:33:13;;;;;;;26.13;23.40;;;21.50;73.50;;;;;;4946340;28;20440;-69
2023/05/22 09:35:42;;;;;;;32.57;23.73;;;21.50;73.10;;;;;;4959092;28;20467;-68
2023/05/22 09:38:12;;;;;;;25.50;22.40;;;21.60;73.40;;;;;;4949322;28;20477;-63
2023/05/22 09:40:41;;;;;;;28.93;23.77;;;21.50;73.80;;;;;;4943780;28;21072;-63
2023/05/22 09:43:10;;;;;;;28.93;21.97;;;21.50;74.30;;;;;;4929028;28;20456;-65
2023/05/22 09:45:39;;;;;;;26.13;23.10;;;21.40;74.30;;;;;;4949506;28;20570;-63
2023/05/22 09:48:11;;;;;;;32.80;23.90;;;21.40;74.90;;;;;;4949938;28;20441;-65
2023/05/22 09:50:40;;;;;;;27.07;21.60;;;21.40;74.90;;;;;;4946476;28;20479;-63
2023/05/22 09:53:10;;;;;;;28.50;23.53;;;21.40;74.20;;;;;;4950486;28;20788;-65
2023/05/22 09:55:39;;;;;;;29.70;24.23;;;21.40;75.50;;;;;;4949027;28;20468;-64
2023/05/22 09:58:12;;;;;;;28.23;24.37;;;21.40;74.30;;;;;;4942845;28;20452;-65
2023/05/22 10:00:41;;;;;;;26.87;23.30;;;21.40;74.60;;;;;;4950715;28;20470;-65
2023/05/22 10:03:11;;;;;;;28.37;22.57;;;21.40;74.70;;;;;;4956993;28;20948;-65
2023/05/22 10:05:45;;;;;;;26.97;24.07;;;21.40;74.60;;;;;;4947454;28;20476;-65
2023/05/22 10:08:20;;;;;;;26.20;23.27;;;21.50;74.70;;;;;;4956035;28;20466;-64
2023/05/22 10:10:51;;;;;;;29.33;24.37;;;21.50;74.80;;;;;;4948262;28;20530;-64
2023/05/22 10:13:20;;;;;;;28.00;25.10;;;21.50;74.20;;;;;;4943013;28;20445;-63
2023/05/22 10:15:50;;;;;;;25.03;21.77;;;21.50;74.40;;;;;;4963121;28;21124;-64
2023/05/22 10:18:19;;;;;;;30.30;23.70;;;21.40;74.10;;;;;;4956835;28;20872;-65
2023/05/22 10:20:48;;;;;;;29.27;24.10;;;21.40;74.30;;;;;;4943807;28;21168;-65
2023/05/22 10:23:19;;;;;;;29.00;23.83;;;21.40;74.50;;;;;;4946337;28;20463;-63
2023/05/22 10:25:48;;;;;;;28.23;22.77;;;21.40;74.60;;;;;;4948283;28;20563;-63
2023/05/22 10:28:24;;;;;;;24.57;20.87;;;21.40;74.80;;;;;;4949668;28;20461;-65
2023/05/22 10:30:59;;;;;;;27.53;21.67;;;21.40;74.50;;;;;;4954528;28;20483;-63
2023/05/22 10:33:59;;;;;;;23.20;19.27;;;21.40;74.70;;;;;;4945252;28;20566;-67
2023/05/22 10:36:40;;;;;;;23.13;20.37;;;21.40;74.30;;;;;;4953757;28;20486;-67
2023/05/22 10:39:27;;;;;;;24.47;21.17;;;21.40;74.40;;;;;;4945996;28;20455;-66
2023/05/22 10:41:55;;;;;;;22.37;17.60;;;21.50;74.40;;;;;;4949359;28;20459;-66
2023/05/22 10:44:24;;;;;;;20.33;17.17;;;21.50;74.30;;;;;;4947646;28;20492;-67
2023/05/22 10:46:52;;;;;;;22.67;20.30;;;21.50;74.20;;;;;;4947892;28;20579;-67
2023/05/22 10:49:22;;;;;;;23.47;17.43;;;21.50;74.20;;;;;;4947795;28;20487;-67
2023/05/22 10:51:56;;;;;;;23.07;20.23;;;21.50;74.00;;;;;;4964895;28;20452;-68
2023/05/22 10:54:43;;;;;;;20.20;18.10;;;21.50;73.90;;;;;;4954907;28;20484;-65
2023/05/22 10:57:15;;;;;;;19.73;17.60;;;21.50;73.70;;;;;;4941207;28;20861;-66
2023/05/22 10:59:43;;;;;;;20.07;18.07;;;21.50;75.20;;;;;;4945600;28;20502;-65
2023/05/22 11:02:20;;;;;;;20.00;17.70;;;21.60;74.00;;;;;;4943280;28;20943;-71
2023/05/22 11:04:49;;;;;;;20.70;16.93;;;21.60;73.90;;;;;;4944020;28;20475;-73
2023/05/22 11:07:18;;;;;;;20.27;17.13;;;21.60;73.80;;;;;;4949168;28;20558;-66
2023/05/22 11:09:48;;;;;;;19.93;17.70;;;21.60;73.90;;;;;;4949466;28;20463;-66
2023/05/22 11:12:19;;;;;;;18.77;16.93;;;21.60;73.90;;;;;;4957313;28;20452;-64
2023/05/22 11:14:52;;;;;;;20.23;18.10;;;21.60;73.90;;;;;;4947182;28;20874;-66
2023/05/22 11:17:22;;;;;;;23.23;17.13;;;21.60;73.80;;;;;;4952425;28;20526;-66
2023/05/22 11:19:59;;;;;;;21.70;18.80;;;21.60;73.80;;;;;;4947261;28;20521;-67
2023/05/22 11:22:35;;;;;;;18.80;16.87;;;21.60;73.80;;;;;;4949268;28;20436;-66
2023/05/22 11:25:08;;;;;;;21.10;17.77;;;21.60;73.80;;;;;;4946979;28;20487;-66
2023/05/22 11:27:37;;;;;;;22.70;19.13;;;21.60;73.90;;;;;;4949169;28;20476;-67
2023/05/22 11:30:08;;;;;;;20.00;17.37;;;21.60;74.00;;;;;;4950262;28;20558;-66
2023/05/22 11:32:36;;;;;;;21.10;17.67;;;21.60;73.70;;;;;;4961448;28;20455;-67
2023/05/22 11:35:07;;;;;;;18.03;16.10;;;21.60;73.90;;;;;;4946809;28;20480;-66
2023/05/22 11:37:39;;;;;;;20.60;17.40;;;21.60;73.80;;;;;;4949574;28;20423;-66
2023/05/22 11:40:10;;;;;;;19.33;17.23;;;21.60;73.70;;;;;;4948023;28;21011;-65
2023/05/22 11:42:39;;;;;;;19.67;16.83;;;21.60;73.70;;;;;;4941999;29;20484;-65
2023/05/22 11:45:08;;;;;;;21.60;19.20;;;21.60;73.80;;;;;;4946957;28;20480;-67
2023/05/22 11:47:36;;;;;;;19.67;16.83;;;21.60;73.80;;;;;;4947797;28;20484;-65
2023/05/22 11:50:08;;;;;;;22.33;18.63;;;21.60;73.80;;;;;;4943767;28;20498;-65
2023/05/22 11:52:40;;;;;;;20.03;17.90;;;21.60;73.90;;;;;;4949816;28;20436;-66
2023/05/22 11:55:10;;;;;;;21.50;17.50;;;21.60;73.80;;;;;;4945441;28;20515;-67
2023/05/22 11:57:39;;;;;;;18.80;16.80;;;21.60;73.80;;;;;;4960531;28;20445;-64
2023/05/22 12:00:09;;;;;;;20.70;17.87;;;21.60;73.80;;;;;;4947795;28;20472;-67
2023/05/22 12:02:45;;;;;;;21.53;19.33;;;21.60;73.80;;;;;;4948885;28;21125;-65
2023/05/22 12:05:15;;;;;;;19.73;16.60;;;21.60;73.70;;;;;;4942093;28;20483;-66
2023/05/22 12:07:44;;;;;;;20.33;18.10;;;21.60;73.80;;;;;;4939737;28;20483;-66
2023/05/22 12:10:15;;;;;;;22.73;18.03;;;21.60;73.70;;;;;;4947837;28;20498;-66
2023/05/22 12:12:44;;;;;;;20.03;17.70;;;21.60;73.70;;;;;;4953996;28;20980;-66
2023/05/22 12:15:13;;;;;;;20.40;18.20;;;21.60;73.80;;;;;;4942814;28;20510;-68
2023/05/22 12:17:43;;;;;;;22.50;17.73;;;21.60;73.70;;;;;;4947815;28;20896;-67
2023/05/22 12:20:13;;;;;;;20.30;18.07;;;21.70;73.70;;;;;;4940143;28;20487;-67
2023/05/22 12:22:43;;;;;;;24.13;19.37;;;21.60;73.60;;;;;;4947957;28;20451;-67
2023/05/22 12:25:17;;;;;;;22.80;19.57;;;21.60;73.60;;;;;;4945868;28;20484;-67
2023/05/22 12:27:46;;;;;;;19.83;17.73;;;21.60;73.60;;;;;;4938950;28;20830;-67
2023/05/22 12:30:15;;;;;;;20.03;17.30;;;21.70;73.70;;;;;;4946647;28;20472;-68
2023/05/22 12:32:48;;;;;;;22.47;19.00;;;21.70;73.80;;;;;;4948067;28;20548;-67
2023/05/22 12:35:17;;;;;;;21.43;18.00;;;21.70;73.80;;;;;;4949881;28;20483;-65
2023/05/22 12:37:50;;;;;;;21.93;17.80;;;21.60;73.70;;;;;;4947662;28;20520;-68
2023/05/22 12:40:19;;;;;;;24.03;19.73;;;21.70;73.70;;;;;;4948060;28;21041;-66
2023/05/22 12:42:48;;;;;;;21.03;18.50;;;21.70;73.80;;;;;;4943283;28;20456;-68
2023/05/22 12:45:17;;;;;;;23.90;18.73;;;21.70;73.70;;;;;;4951830;28;20921;-67
2023/05/22 12:47:46;;;;;;;27.53;23.90;;;21.70;73.60;;;;;;4941977;28;20468;-66
2023/05/22 12:50:14;;;;;;;21.10;17.87;;;21.70;73.80;;;;;;4942969;28;21027;-68